sensor_id;sensor_type;location;lat;lon;timestamp;pressure;altitude;pressure_sealevel;temperature;humidity
62402;BME280;48440;51.224;22.506;2023-04-21T00:02:24;99363.41;;;13.02;43.53
62402;BME280;48440;51.224;22.506;2023-04-21T00:04:52;99373.47;;;12.97;43.30
62402;BME280;48440;51.224;22.506;2023-04-21T00:07:18;99376.47;;;12.95;43.62
62402;BME280;48440;51.224;22.506;2023-04-21T00:09:45;99362.59;;;12.97;43.71
62402;BME280;48440;51.224;22.506;2023-04-21T00:12:10;99366.94;;;12.93;43.68
62402;BME280;48440;51.224;22.506;2023-04-21T00:14:37;99368.00;;;12.91;43.48
62402;BME280;48440;51.224;22.506;2023-04-21T00:17:04;99362.31;;;12.93;43.16
62402;BME280;48440;51.224;22.506;2023-04-21T00:19:30;99363.66;;;12.90;43.52
62402;BME280;48440;51.224;22.506;2023-04-21T00:21:56;99360.66;;;12.92;43.41
62402;BME280;48440;51.224;22.506;2023-04-21T00:24:24;99367.19;;;12.86;43.76
62402;BME280;48440;51.224;22.506;2023-04-21T00:26:50;99368.53;;;12.88;43.43
62402;BME280;48440;51.224;22.506;2023-04-21T00:29:16;99369.63;;;12.87;43.50
62402;BME280;48440;51.224;22.506;2023-04-21T00:31:41;99368.53;;;12.83;43.61
62402;BME280;48440;51.224;22.506;2023-04-21T00:34:07;99371.78;;;12.80;43.64
62402;BME280;48440;51.224;22.506;2023-04-21T00:36:33;99367.41;;;12.79;43.92
62402;BME280;48440;51.224;22.506;2023-04-21T00:38:58;99366.59;;;12.79;43.77
62402;BME280;48440;51.224;22.506;2023-04-21T00:41:24;99364.97;;;12.73;44.14
62402;BME280;48440;51.224;22.506;2023-04-21T00:44:03;99365.47;;;12.65;44.21
62402;BME280;48440;51.224;22.506;2023-04-21T00:46:29;99366.56;;;12.64;43.78
62402;BME280;48440;51.224;22.506;2023-04-21T00:48:54;99363.53;;;12.55;44.33
62402;BME280;48440;51.224;22.506;2023-04-21T00:51:20;99358.88;;;12.50;44.45
62402;BME280;48440;51.224;22.506;2023-04-21T00:53:46;99365.66;;;12.43;45.00
62402;BME280;48440;51.224;22.506;2023-04-21T00:56:12;99358.31;;;12.43;45.48
62402;BME280;48440;51.224;22.506;2023-04-21T00:58:41;99361.56;;;12.40;45.64
62402;BME280;48440;51.224;22.506;2023-04-21T01:01:07;99364.25;;;12.35;45.70
62402;BME280;48440;51.224;22.506;2023-04-21T01:03:33;99366.16;;;12.35;45.59
62402;BME280;48440;51.224;22.506;2023-04-21T01:05:58;99369.34;;;12.21;45.22
62402;BME280;48440;51.224;22.506;2023-04-21T01:08:25;99372.88;;;12.22;45.50
62402;BME280;48440;51.224;22.506;2023-04-21T01:10:51;99367.72;;;12.20;45.79
62402;BME280;48440;51.224;22.506;2023-04-21T01:13:20;99375.34;;;12.18;46.05
62402;BME280;48440;51.224;22.506;2023-04-21T01:15:49;99373.69;;;12.17;46.38
62402;BME280;48440;51.224;22.506;2023-04-21T01:18:15;99366.63;;;12.16;46.38
62402;BME280;48440;51.224;22.506;2023-04-21T01:20:42;99372.31;;;12.15;46.18
62402;BME280;48440;51.224;22.506;2023-04-21T01:23:09;99367.97;;;12.14;46.31
62402;BME280;48440;51.224;22.506;2023-04-21T01:25:35;99363.59;;;12.13;46.41
62402;BME280;48440;51.224;22.506;2023-04-21T01:28:01;99377.19;;;12.13;46.10
62402;BME280;48440;51.224;22.506;2023-04-21T01:30:27;99367.66;;;12.10;46.63
62402;BME280;48440;51.224;22.506;2023-04-21T01:32:53;99370.06;;;12.07;46.70
62402;BME280;48440;51.224;22.506;2023-04-21T01:35:19;99375.22;;;12.03;46.57
62402;BME280;48440;51.224;22.506;2023-04-21T01:37:45;99371.69;;;12.03;46.93
62402;BME280;48440;51.224;22.506;2023-04-21T01:40:10;99368.38;;;11.96;46.51
62402;BME280;48440;51.224;22.506;2023-04-21T01:42:38;99364.56;;;11.92;47.23
62402;BME280;48440;51.224;22.506;2023-04-21T01:45:05;99369.38;;;11.84;47.22
62402;BME280;48440;51.224;22.506;2023-04-21T01:47:30;99377.50;;;11.79;47.30
62402;BME280;48440;51.224;22.506;2023-04-21T01:49:56;99370.44;;;11.78;47.47
62402;BME280;48440;51.224;22.506;2023-04-21T01:52:22;99370.09;;;11.75;47.39
62402;BME280;48440;51.224;22.506;2023-04-21T01:54:48;99373.59;;;11.70;47.21
62402;BME280;48440;51.224;22.506;2023-04-21T01:57:14;99365.72;;;11.69;47.00
62402;BME280;48440;51.224;22.506;2023-04-21T01:59:40;99353.47;;;11.66;47.52
62402;BME280;48440;51.224;22.506;2023-04-21T02:02:06;99364.56;;;11.60;47.54
62402;BME280;48440;51.224;22.506;2023-04-21T02:04:32;99350.66;;;11.56;47.58
62402;BME280;48440;51.224;22.506;2023-04-21T02:06:57;99351.47;;;11.56;47.75
62402;BME280;48440;51.224;22.506;2023-04-21T02:09:23;99357.16;;;11.55;47.60
62402;BME280;48440;51.224;22.506;2023-04-21T02:11:49;99349.84;;;11.55;47.49
62402;BME280;48440;51.224;22.506;2023-04-21T02:14:14;99354.41;;;11.50;47.20
62402;BME280;48440;51.224;22.506;2023-04-21T02:16:40;99350.63;;;11.51;47.44
62402;BME280;48440;51.224;22.506;2023-04-21T02:19:06;99366.34;;;11.49;47.01
62402;BME280;48440;51.224;22.506;2023-04-21T02:21:32;99368.75;;;11.40;47.38
62402;BME280;48440;51.224;22.506;2023-04-21T02:23:58;99355.97;;;11.41;47.32
62402;BME280;48440;51.224;22.506;2023-04-21T02:26:24;99364.09;;;11.36;47.68
62402;BME280;48440;51.224;22.506;2023-04-21T02:28:50;99362.69;;;11.33;47.76
62402;BME280;48440;51.224;22.506;2023-04-21T02:31:16;99362.06;;;11.26;47.68
62402;BME280;48440;51.224;22.506;2023-04-21T02:33:43;99357.16;;;11.23;47.50
62402;BME280;48440;51.224;22.506;2023-04-21T02:36:09;99358.22;;;11.22;47.83
62402;BME280;48440;51.224;22.506;2023-04-21T02:38:35;99362.84;;;11.21;47.68
62402;BME280;48440;51.224;22.506;2023-04-21T02:41:01;99358.81;;;11.24;47.62
62402;BME280;48440;51.224;22.506;2023-04-21T02:43:27;99357.66;;;11.15;47.95
62402;BME280;48440;51.224;22.506;2023-04-21T02:45:53;99359.22;;;11.11;48.01
62402;BME280;48440;51.224;22.506;2023-04-21T02:48:18;99359.47;;;11.09;48.37
62402;BME280;48440;51.224;22.506;2023-04-21T02:50:48;99357.03;;;11.08;48.26
62402;BME280;48440;51.224;22.506;2023-04-21T02:53:14;99357.59;;;11.10;48.25
62402;BME280;48440;51.224;22.506;2023-04-21T02:55:41;99361.06;;;11.05;48.07
62402;BME280;48440;51.224;22.506;2023-04-21T02:58:07;99354.25;;;11.03;48.50
62402;BME280;48440;51.224;22.506;2023-04-21T03:00:33;99364.75;;;10.94;48.34
62402;BME280;48440;51.224;22.506;2023-04-21T03:02:58;99360.94;;;10.90;48.62
62402;BME280;48440;51.224;22.506;2023-04-21T03:05:24;99364.97;;;10.87;48.88
62402;BME280;48440;51.224;22.506;2023-04-21T03:07:50;99360.34;;;10.88;48.81
62402;BME280;48440;51.224;22.506;2023-04-21T03:10:16;99365.47;;;10.84;48.73
62402;BME280;48440;51.224;22.506;2023-04-21T03:12:41;99364.66;;;10.84;48.25
62402;BME280;48440;51.224;22.506;2023-04-21T03:15:08;99363.00;;;10.83;48.94
62402;BME280;48440;51.224;22.506;2023-04-21T03:17:33;99365.16;;;10.81;48.80
62402;BME280;48440;51.224;22.506;2023-04-21T03:19:59;99361.63;;;10.80;48.95
62402;BME280;48440;51.224;22.506;2023-04-21T03:22:25;99351.84;;;10.79;48.88
62402;BME280;48440;51.224;22.506;2023-04-21T03:24:50;99356.44;;;10.79;48.54
62402;BME280;48440;51.224;22.506;2023-04-21T03:27:16;99362.38;;;10.76;48.92
62402;BME280;48440;51.224;22.506;2023-04-21T03:29:42;99355.13;;;10.81;48.71
62402;BME280;48440;51.224;22.506;2023-04-21T03:32:08;99361.31;;;10.77;48.81
62402;BME280;48440;51.224;22.506;2023-04-21T03:34:33;99358.84;;;10.75;48.93
62402;BME280;48440;51.224;22.506;2023-04-21T03:36:59;99354.81;;;10.78;48.41
62402;BME280;48440;51.224;22.506;2023-04-21T03:39:25;99362.38;;;10.76;48.68
62402;BME280;48440;51.224;22.506;2023-04-21T03:41:51;99358.53;;;10.72;48.71
62402;BME280;48440;51.224;22.506;2023-04-21T03:44:17;99361.50;;;10.70;48.37
62402;BME280;48440;51.224;22.506;2023-04-21T03:46:51;99363.44;;;10.75;48.68
62402;BME280;48440;51.224;22.506;2023-04-21T03:49:17;99368.38;;;10.78;48.55
62402;BME280;48440;51.224;22.506;2023-04-21T03:51:43;99371.28;;;10.71;48.64
62402;BME280;48440;51.224;22.506;2023-04-21T03:54:09;99368.00;;;10.69;48.72
62402;BME280;48440;51.224;22.506;2023-04-21T03:56:34;99372.00;;;10.62;48.92
62402;BME280;48440;51.224;22.506;2023-04-21T03:59:00;99375.78;;;10.61;48.93
62402;BME280;48440;51.224;22.506;2023-04-21T04:01:29;99375.78;;;10.61;48.53
62402;BME280;48440;51.224;22.506;2023-04-21T04:03:55;99375.47;;;10.57;48.76
62402;BME280;48440;51.224;22.506;2023-04-21T04:06:21;99371.50;;;10.65;48.99
62402;BME280;48440;51.224;22.506;2023-04-21T04:08:47;99380.72;;;10.64;48.58
62402;BME280;48440;51.224;22.506;2023-04-21T04:11:13;99378.50;;;10.61;48.93
62402;BME280;48440;51.224;22.506;2023-04-21T04:13:38;99380.75;;;10.69;48.83
62402;BME280;48440;51.224;22.506;2023-04-21T04:16:04;99389.72;;;10.69;48.44
62402;BME280;48440;51.224;22.506;2023-04-21T04:18:30;99381.31;;;10.71;48.45
62402;BME280;48440;51.224;22.506;2023-04-21T04:20:56;99381.38;;;10.76;48.10
62402;BME280;48440;51.224;22.506;2023-04-21T04:23:21;99388.63;;;10.70;48.08
62402;BME280;48440;51.224;22.506;2023-04-21T04:25:47;99385.97;;;10.75;47.65
62402;BME280;48440;51.224;22.506;2023-04-21T04:28:19;99393.13;;;10.81;47.86
62402;BME280;48440;51.224;22.506;2023-04-21T04:30:46;99388.00;;;10.85;47.69
62402;BME280;48440;51.224;22.506;2023-04-21T04:33:13;99384.22;;;10.86;47.50
62402;BME280;48440;51.224;22.506;2023-04-21T04:35:39;99388.84;;;10.85;47.37
62402;BME280;48440;51.224;22.506;2023-04-21T04:38:04;99372.84;;;10.89;47.37
62402;BME280;48440;51.224;22.506;2023-04-21T04:40:32;99378.88;;;10.96;47.02
62402;BME280;48440;51.224;22.506;2023-04-21T04:42:58;99388.09;;;10.95;47.13
62402;BME280;48440;51.224;22.506;2023-04-21T04:45:36;99380.78;;;10.96;47.46
62402;BME280;48440;51.224;22.506;2023-04-21T04:48:03;99391.63;;;10.96;47.09
62402;BME280;48440;51.224;22.506;2023-04-21T04:50:29;99388.22;;;11.05;47.23
62402;BME280;48440;51.224;22.506;2023-04-21T04:52:55;99386.28;;;11.28;46.01
62402;BME280;48440;51.224;22.506;2023-04-21T04:55:22;99388.66;;;11.51;45.27
62402;BME280;48440;51.224;22.506;2023-04-21T04:57:48;99389.63;;;11.67;45.23
62402;BME280;48440;51.224;22.506;2023-04-21T05:00:14;99385.09;;;11.77;44.45
62402;BME280;48440;51.224;22.506;2023-04-21T05:02:40;99391.53;;;12.03;43.94
62402;BME280;48440;51.224;22.506;2023-04-21T05:05:06;99391.91;;;12.17;44.05
62402;BME280;48440;51.224;22.506;2023-04-21T05:07:36;99390.06;;;12.28;43.59
62402;BME280;48440;51.224;22.506;2023-04-21T05:10:03;99389.88;;;12.44;43.61
62402;BME280;48440;51.224;22.506;2023-04-21T05:12:29;99390.25;;;12.63;42.90
62402;BME280;48440;51.224;22.506;2023-04-21T05:14:57;99385.66;;;12.79;42.59
62402;BME280;48440;51.224;22.506;2023-04-21T05:17:22;99389.81;;;12.91;42.13
62402;BME280;48440;51.224;22.506;2023-04-21T05:19:48;99381.66;;;12.97;42.31
62402;BME280;48440;51.224;22.506;2023-04-21T05:22:14;99389.56;;;13.08;41.63
62402;BME280;48440;51.224;22.506;2023-04-21T05:24:43;99380.63;;;13.18;41.58
62402;BME280;48440;51.224;22.506;2023-04-21T05:27:09;99387.75;;;13.34;41.03
62402;BME280;48440;51.224;22.506;2023-04-21T05:29:35;99385.84;;;13.55;40.66
62402;BME280;48440;51.224;22.506;2023-04-21T05:32:01;99382.31;;;13.70;40.42
62402;BME280;48440;51.224;22.506;2023-04-21T05:34:30;99382.03;;;13.86;40.23
62402;BME280;48440;51.224;22.506;2023-04-21T05:37:09;99381.75;;;13.93;39.81
62402;BME280;48440;51.224;22.506;2023-04-21T05:39:36;99376.81;;;14.05;39.57
62402;BME280;48440;51.224;22.506;2023-04-21T05:42:34;99377.84;;;14.30;39.14
62402;BME280;48440;51.224;22.506;2023-04-21T05:45:01;99381.66;;;14.49;38.29
62402;BME280;48440;51.224;22.506;2023-04-21T05:47:29;99381.31;;;14.66;38.20
62402;BME280;48440;51.224;22.506;2023-04-21T05:49:55;99376.03;;;14.89;38.02
62402;BME280;48440;51.224;22.506;2023-04-21T05:52:21;99384.97;;;15.05;37.99
62402;BME280;48440;51.224;22.506;2023-04-21T05:54:47;99382.66;;;15.27;37.70
62402;BME280;48440;51.224;22.506;2023-04-21T05:57:13;99374.84;;;15.45;36.91
62402;BME280;48440;51.224;22.506;2023-04-21T05:59:38;99375.53;;;15.66;36.53
62402;BME280;48440;51.224;22.506;2023-04-21T06:02:07;99372.50;;;15.72;35.41
62402;BME280;48440;51.224;22.506;2023-04-21T06:04:33;99371.72;;;15.95;36.05
62402;BME280;48440;51.224;22.506;2023-04-21T06:07:04;99378.66;;;16.12;35.27
62402;BME280;48440;51.224;22.506;2023-04-21T06:09:31;99374.41;;;16.29;34.90
62402;BME280;48440;51.224;22.506;2023-04-21T06:11:56;99376.72;;;16.41;35.14
62402;BME280;48440;51.224;22.506;2023-04-21T06:14:21;99369.56;;;16.69;34.42
62402;BME280;48440;51.224;22.506;2023-04-21T06:16:47;99378.28;;;16.95;33.55
62402;BME280;48440;51.224;22.506;2023-04-21T06:19:16;99368.75;;;17.11;33.57
62402;BME280;48440;51.224;22.506;2023-04-21T06:21:42;99371.09;;;17.18;33.31
62402;BME280;48440;51.224;22.506;2023-04-21T06:24:08;99374.00;;;17.45;33.43
62402;BME280;48440;51.224;22.506;2023-04-21T06:26:34;99368.06;;;17.57;31.92
62402;BME280;48440;51.224;22.506;2023-04-21T06:28:59;99370.72;;;17.62;32.32
62402;BME280;48440;51.224;22.506;2023-04-21T06:31:25;99369.81;;;17.85;31.87
62402;BME280;48440;51.224;22.506;2023-04-21T06:33:51;99367.91;;;18.00;31.67
62402;BME280;48440;51.224;22.506;2023-04-21T06:36:16;99368.03;;;18.08;31.09
62402;BME280;48440;51.224;22.506;2023-04-21T06:38:42;99370.47;;;18.23;31.03
62402;BME280;48440;51.224;22.506;2023-04-21T06:41:08;99365.94;;;18.33;31.64
62402;BME280;48440;51.224;22.506;2023-04-21T06:43:34;99368.28;;;18.53;30.78
62402;BME280;48440;51.224;22.506;2023-04-21T06:46:13;99369.53;;;18.60;29.93
62402;BME280;48440;51.224;22.506;2023-04-21T06:48:49;99371.03;;;18.80;30.63
62402;BME280;48440;51.224;22.506;2023-04-21T06:51:15;99367.47;;;18.93;30.68
62402;BME280;48440;51.224;22.506;2023-04-21T06:53:46;99363.28;;;18.96;30.54
62402;BME280;48440;51.224;22.506;2023-04-21T06:56:22;99366.59;;;19.20;30.48
62402;BME280;48440;51.224;22.506;2023-04-21T06:58:52;99367.88;;;19.23;30.40
62402;BME280;48440;51.224;22.506;2023-04-21T07:01:48;99373.94;;;19.47;30.83
62402;BME280;48440;51.224;22.506;2023-04-21T07:04:40;99368.28;;;19.66;30.77
62402;BME280;48440;51.224;22.506;2023-04-21T07:07:08;99366.28;;;19.80;30.80
62402;BME280;48440;51.224;22.506;2023-04-21T07:09:34;99363.16;;;19.73;30.96
62402;BME280;48440;51.224;22.506;2023-04-21T07:12:00;99365.84;;;19.87;30.67
62402;BME280;48440;51.224;22.506;2023-04-21T07:14:27;99357.31;;;19.97;30.58
62402;BME280;48440;51.224;22.506;2023-04-21T07:16:53;99351.59;;;20.16;29.76
62402;BME280;48440;51.224;22.506;2023-04-21T07:19:21;99367.66;;;20.22;29.13
62402;BME280;48440;51.224;22.506;2023-04-21T07:21:47;99363.97;;;20.36;29.08
62402;BME280;48440;51.224;22.506;2023-04-21T07:24:13;99363.13;;;20.49;29.05
62402;BME280;48440;51.224;22.506;2023-04-21T07:26:39;99366.19;;;20.47;29.00
62402;BME280;48440;51.224;22.506;2023-04-21T07:29:05;99362.66;;;20.64;28.84
62402;BME280;48440;51.224;22.506;2023-04-21T07:31:31;99357.03;;;20.78;28.96
62402;BME280;48440;51.224;22.506;2023-04-21T07:33:56;99362.06;;;20.76;29.58
62402;BME280;48440;51.224;22.506;2023-04-21T07:36:24;99369.56;;;20.92;29.41
62402;BME280;48440;51.224;22.506;2023-04-21T07:39:10;99367.09;;;20.82;29.17
62402;BME280;48440;51.224;22.506;2023-04-21T07:41:39;99366.66;;;20.97;28.67
62402;BME280;48440;51.224;22.506;2023-04-21T07:44:05;99357.91;;;21.13;28.09
62402;BME280;48440;51.224;22.506;2023-04-21T07:46:30;99356.78;;;21.14;29.23
62402;BME280;48440;51.224;22.506;2023-04-21T07:48:59;99361.38;;;21.27;28.88
62402;BME280;48440;51.224;22.506;2023-04-21T07:51:27;99356.00;;;21.39;27.83
62402;BME280;48440;51.224;22.506;2023-04-21T07:53:52;99352.94;;;21.49;27.54
62402;BME280;48440;51.224;22.506;2023-04-21T07:56:18;99349.81;;;21.59;27.63
62402;BME280;48440;51.224;22.506;2023-04-21T07:58:43;99339.25;;;21.70;26.80
62402;BME280;48440;51.224;22.506;2023-04-21T08:01:09;99336.13;;;21.89;28.83
62402;BME280;48440;51.224;22.506;2023-04-21T08:03:35;99337.59;;;21.95;27.57
62402;BME280;48440;51.224;22.506;2023-04-21T08:06:00;99342.94;;;22.09;26.76
62402;BME280;48440;51.224;22.506;2023-04-21T08:08:26;99333.84;;;22.08;26.34
62402;BME280;48440;51.224;22.506;2023-04-21T08:10:52;99336.59;;;21.99;28.65
62402;BME280;48440;51.224;22.506;2023-04-21T08:13:18;99339.53;;;22.03;27.28
62402;BME280;48440;51.224;22.506;2023-04-21T08:15:45;99335.28;;;22.14;27.01
62402;BME280;48440;51.224;22.506;2023-04-21T08:18:10;99339.34;;;22.17;27.74
62402;BME280;48440;51.224;22.506;2023-04-21T08:20:36;99337.44;;;22.09;28.63
62402;BME280;48440;51.224;22.506;2023-04-21T08:23:04;99332.69;;;22.09;26.59
62402;BME280;48440;51.224;22.506;2023-04-21T08:25:30;99327.47;;;22.16;26.30
62402;BME280;48440;51.224;22.506;2023-04-21T08:27:55;99340.94;;;22.26;26.42
62402;BME280;48440;51.224;22.506;2023-04-21T08:30:21;99329.50;;;22.37;26.96
62402;BME280;48440;51.224;22.506;2023-04-21T08:32:46;99330.84;;;22.30;25.80
62402;BME280;48440;51.224;22.506;2023-04-21T08:35:12;99332.31;;;22.28;25.27
62402;BME280;48440;51.224;22.506;2023-04-21T08:37:37;99334.75;;;22.21;24.84
62402;BME280;48440;51.224;22.506;2023-04-21T08:40:04;99323.88;;;22.16;23.01
62402;BME280;48440;51.224;22.506;2023-04-21T08:42:31;99325.53;;;21.99;24.14
62402;BME280;48440;51.224;22.506;2023-04-21T08:44:57;99331.22;;;22.12;25.84
62402;BME280;48440;51.224;22.506;2023-04-21T08:47:23;99315.25;;;22.26;24.85
62402;BME280;48440;51.224;22.506;2023-04-21T08:49:50;99316.22;;;22.30;24.41
62402;BME280;48440;51.224;22.506;2023-04-21T08:52:16;99318.97;;;22.30;23.98
62402;BME280;48440;51.224;22.506;2023-04-21T08:54:42;99318.44;;;22.37;24.58
62402;BME280;48440;51.224;22.506;2023-04-21T08:57:08;99328.56;;;22.32;24.85
62402;BME280;48440;51.224;22.506;2023-04-21T08:59:33;99322.69;;;22.34;23.88
62402;BME280;48440;51.224;22.506;2023-04-21T09:04:30;99323.88;;;22.16;21.78
62402;BME280;48440;51.224;22.506;2023-04-21T09:06:56;99321.06;;;22.33;22.41
62402;BME280;48440;51.224;22.506;2023-04-21T09:09:22;99320.22;;;22.41;22.11
62402;BME280;48440;51.224;22.506;2023-04-21T09:11:57;99325.59;;;22.38;22.62
62402;BME280;48440;51.224;22.506;2023-04-21T09:14:32;99303.47;;;22.38;21.30
62402;BME280;48440;51.224;22.506;2023-04-21T09:16:59;99311.53;;;22.22;22.61
62402;BME280;48440;51.224;22.506;2023-04-21T09:19:26;99301.72;;;22.33;23.29
62402;BME280;48440;51.224;22.506;2023-04-21T09:21:52;99299.28;;;22.31;23.49
62402;BME280;48440;51.224;22.506;2023-04-21T09:24:20;99301.03;;;22.36;23.14
62402;BME280;48440;51.224;22.506;2023-04-21T09:27:03;99293.81;;;22.14;24.47
62402;BME280;48440;51.224;22.506;2023-04-21T09:29:29;99305.44;;;22.37;24.46
62402;BME280;48440;51.224;22.506;2023-04-21T09:31:55;99294.91;;;22.30;23.14
62402;BME280;48440;51.224;22.506;2023-04-21T09:34:25;99290.69;;;22.33;24.06
62402;BME280;48440;51.224;22.506;2023-04-21T09:39:30;99306.06;;;21.96;20.41
62402;BME280;48440;51.224;22.506;2023-04-21T09:41:56;99303.78;;;21.98;21.50
62402;BME280;48440;51.224;22.506;2023-04-21T09:44:26;99306.88;;;22.05;22.28
62402;BME280;48440;51.224;22.506;2023-04-21T09:46:59;99304.59;;;22.07;23.64
62402;BME280;48440;51.224;22.506;2023-04-21T09:49:34;99303.59;;;22.12;22.70
62402;BME280;48440;51.224;22.506;2023-04-21T09:52:01;99280.88;;;21.97;23.65
62402;BME280;48440;51.224;22.506;2023-04-21T09:54:32;99297.28;;;21.85;21.23
62402;BME280;48440;51.224;22.506;2023-04-21T09:57:02;99293.41;;;21.86;22.16
62402;BME280;48440;51.224;22.506;2023-04-21T09:59:34;99288.88;;;21.82;22.42
62402;BME280;48440;51.224;22.506;2023-04-21T10:02:04;99274.59;;;21.80;21.67
62402;BME280;48440;51.224;22.506;2023-04-21T10:04:30;99299.13;;;21.64;21.51
62402;BME280;48440;51.224;22.506;2023-04-21T10:06:58;99284.88;;;21.53;21.21
62402;BME280;48440;51.224;22.506;2023-04-21T10:09:26;99281.47;;;21.56;21.55
62402;BME280;48440;51.224;22.506;2023-04-21T10:11:56;99278.84;;;21.68;22.78
62402;BME280;48440;51.224;22.506;2023-04-21T10:14:24;99274.28;;;21.64;22.32
62402;BME280;48440;51.224;22.506;2023-04-21T10:16:57;99266.53;;;21.49;23.39
62402;BME280;48440;51.224;22.506;2023-04-21T10:19:27;99271.22;;;21.57;23.73
62402;BME280;48440;51.224;22.506;2023-04-21T10:21:56;99266.81;;;21.73;23.20
62402;BME280;48440;51.224;22.506;2023-04-21T10:24:28;99245.03;;;21.72;23.44
62402;BME280;48440;51.224;22.506;2023-04-21T10:26:55;99257.56;;;21.60;22.67
62402;BME280;48440;51.224;22.506;2023-04-21T10:29:33;99260.16;;;21.57;23.35
62402;BME280;48440;51.224;22.506;2023-04-21T10:31:58;99260.97;;;21.66;22.57
62402;BME280;48440;51.224;22.506;2023-04-21T10:34:35;99263.09;;;21.60;22.39
62402;BME280;48440;51.224;22.506;2023-04-21T10:39:34;99260.56;;;21.21;21.40
62402;BME280;48440;51.224;22.506;2023-04-21T10:44:42;99257.63;;;21.34;21.67
62402;BME280;48440;51.224;22.506;2023-04-21T10:47:08;99253.09;;;21.04;22.73
62402;BME280;48440;51.224;22.506;2023-04-21T10:49:38;99252.91;;;21.00;22.66
62402;BME280;48440;51.224;22.506;2023-04-21T10:52:08;99242.53;;;20.89;23.62
62402;BME280;48440;51.224;22.506;2023-04-21T10:57:18;99246.25;;;20.84;22.30
62402;BME280;48440;51.224;22.506;2023-04-21T10:59:45;99249.31;;;20.48;22.66
62402;BME280;48440;51.224;22.506;2023-04-21T11:02:14;99243.88;;;20.34;23.45
62402;BME280;48440;51.224;22.506;2023-04-21T11:04:40;99240.22;;;20.48;23.19
62402;BME280;48440;51.224;22.506;2023-04-21T11:07:23;99236.34;;;20.49;23.54
62402;BME280;48440;51.224;22.506;2023-04-21T11:10:00;99223.38;;;20.49;23.85
62402;BME280;48440;51.224;22.506;2023-04-21T11:12:39;99227.44;;;20.52;24.40
62402;BME280;48440;51.224;22.506;2023-04-21T11:15:07;99228.41;;;20.64;24.88
62402;BME280;48440;51.224;22.506;2023-04-21T11:17:33;99228.56;;;20.51;23.77
62402;BME280;48440;51.224;22.506;2023-04-21T11:20:00;99222.31;;;20.37;24.06
62402;BME280;48440;51.224;22.506;2023-04-21T11:22:26;99223.59;;;20.22;24.21
62402;BME280;48440;51.224;22.506;2023-04-21T11:24:56;99207.84;;;20.14;23.89
62402;BME280;48440;51.224;22.506;2023-04-21T11:27:22;99216.44;;;20.12;24.09
62402;BME280;48440;51.224;22.506;2023-04-21T11:29:48;99212.81;;;19.94;24.15
62402;BME280;48440;51.224;22.506;2023-04-21T11:32:15;99225.78;;;19.94;25.38
62402;BME280;48440;51.224;22.506;2023-04-21T11:34:41;99213.59;;;19.86;23.78
62402;BME280;48440;51.224;22.506;2023-04-21T11:37:14;99216.78;;;19.80;25.41
62402;BME280;48440;51.224;22.506;2023-04-21T11:39:41;99213.97;;;19.62;24.34
62402;BME280;48440;51.224;22.506;2023-04-21T11:42:08;99218.38;;;19.50;24.32
62402;BME280;48440;51.224;22.506;2023-04-21T11:44:40;99209.59;;;19.39;24.29
62402;BME280;48440;51.224;22.506;2023-04-21T11:47:21;99200.09;;;19.23;23.65
62402;BME280;48440;51.224;22.506;2023-04-21T11:52:32;99208.75;;;19.08;24.24
62402;BME280;48440;51.224;22.506;2023-04-21T11:55:02;99197.94;;;19.11;24.97
62402;BME280;48440;51.224;22.506;2023-04-21T11:57:29;99207.63;;;19.09;24.56
62402;BME280;48440;51.224;22.506;2023-04-21T12:00:04;99200.00;;;19.06;24.81
62402;BME280;48440;51.224;22.506;2023-04-21T12:02:31;99208.63;;;19.13;24.88
62402;BME280;48440;51.224;22.506;2023-04-21T12:07:22;99189.75;;;19.20;25.65
62402;BME280;48440;51.224;22.506;2023-04-21T12:09:50;99188.88;;;19.11;24.97
62402;BME280;48440;51.224;22.506;2023-04-21T12:12:16;99183.50;;;19.06;25.10
62402;BME280;48440;51.224;22.506;2023-04-21T12:14:43;99176.19;;;19.01;25.15
62402;BME280;48440;51.224;22.506;2023-04-21T12:17:09;99183.94;;;18.99;25.53
62402;BME280;48440;51.224;22.506;2023-04-21T12:19:41;99182.81;;;19.00;26.41
62402;BME280;48440;51.224;22.506;2023-04-21T12:22:12;99177.38;;;19.09;26.78
62402;BME280;48440;51.224;22.506;2023-04-21T12:24:39;99167.81;;;19.06;27.17
62402;BME280;48440;51.224;22.506;2023-04-21T12:27:06;99175.63;;;18.90;25.26
62402;BME280;48440;51.224;22.506;2023-04-21T12:29:32;99174.31;;;18.88;25.91
62402;BME280;48440;51.224;22.506;2023-04-21T12:32:05;99179.13;;;18.82;25.03
62402;BME280;48440;51.224;22.506;2023-04-21T12:34:30;99177.63;;;18.76;24.74
62402;BME280;48440;51.224;22.506;2023-04-21T12:36:56;99173.19;;;18.67;24.86
62402;BME280;48440;51.224;22.506;2023-04-21T12:39:22;99168.38;;;18.58;25.07
62402;BME280;48440;51.224;22.506;2023-04-21T12:41:47;99163.63;;;18.50;25.78
62402;BME280;48440;51.224;22.506;2023-04-21T12:44:13;99154.72;;;18.45;26.52
62402;BME280;48440;51.224;22.506;2023-04-21T12:46:39;99164.88;;;18.44;25.84
62402;BME280;48440;51.224;22.506;2023-04-21T12:49:06;99173.53;;;18.38;25.40
62402;BME280;48440;51.224;22.506;2023-04-21T12:51:32;99170.59;;;18.34;25.71
62402;BME280;48440;51.224;22.506;2023-04-21T12:53:58;99160.34;;;18.26;26.07
62402;BME280;48440;51.224;22.506;2023-04-21T12:56:24;99171.63;;;18.24;26.36
62402;BME280;48440;51.224;22.506;2023-04-21T12:58:50;99164.13;;;18.16;26.24
62402;BME280;48440;51.224;22.506;2023-04-21T13:01:15;99154.47;;;18.19;26.44
62402;BME280;48440;51.224;22.506;2023-04-21T13:03:41;99152.50;;;18.19;27.21
62402;BME280;48440;51.224;22.506;2023-04-21T13:06:07;99155.97;;;18.25;26.85
62402;BME280;48440;51.224;22.506;2023-04-21T13:08:33;99157.06;;;18.24;26.13
62402;BME280;48440;51.224;22.506;2023-04-21T13:10:58;99159.75;;;18.15;25.84